sensor_id;sensor_type;location;lat;lon;timestamp;P1;durP1;ratioP1;P2;durP2;ratioP2
80681;SDS011;70045;40.200;44.582;2024-01-15T09:11:25;24.73;;;12.27;;
80681;SDS011;70045;40.200;44.582;2024-01-15T09:13:51;28.83;;;13.13;;
80681;SDS011;70045;40.200;44.582;2024-01-15T09:16:16;22.83;;;12.80;;
80681;SDS011;70045;40.200;44.582;2024-01-15T09:18:42;24.42;;;12.68;;
80681;SDS011;70045;40.200;44.582;2024-01-15T09:21:07;29.63;;;12.77;;
80681;SDS011;70045;40.200;44.582;2024-01-15T09:23:36;22.90;;;12.35;;
80681;SDS011;70045;40.200;44.582;2024-01-15T09:26:03;24.42;;;11.98;;
80681;SDS011;70045;40.200;44.582;2024-01-15T09:28:29;25.40;;;12.80;;
80681;SDS011;70045;40.200;44.582;2024-01-15T09:30:54;25.40;;;11.70;;
80681;SDS011;70045;40.200;44.582;2024-01-15T09:33:20;20.30;;;11.90;;
80681;SDS011;70045;40.200;44.582;2024-01-15T09:35:48;20.90;;;11.35;;
80681;SDS011;70045;40.200;44.582;2024-01-15T09:38:13;19.52;;;10.30;;
80681;SDS011;70045;40.200;44.582;2024-01-15T09:40:39;16.80;;;9.02;;
80681;SDS011;70045;40.200;44.582;2024-01-15T09:43:08;15.77;;;8.73;;
80681;SDS011;70045;40.200;44.582;2024-01-15T09:45:34;15.40;;;8.00;;
80681;SDS011;70045;40.200;44.582;2024-01-15T09:48:03;11.82;;;6.80;;
80681;SDS011;70045;40.200;44.582;2024-01-15T09:50:29;16.60;;;7.97;;
80681;SDS011;70045;40.200;44.582;2024-01-15T09:52:54;13.45;;;7.40;;
80681;SDS011;70045;40.200;44.582;2024-01-15T09:55:21;12.80;;;7.18;;
80681;SDS011;70045;40.200;44.582;2024-01-15T09:57:47;14.77;;;6.90;;
80681;SDS011;70045;40.200;44.582;2024-01-15T10:00:17;11.50;;;6.10;;
80681;SDS011;70045;40.200;44.582;2024-01-15T10:05:08;10.77;;;5.77;;
80681;SDS011;70045;40.200;44.582;2024-01-15T10:07:35;10.10;;;4.85;;
80681;SDS011;70045;40.200;44.582;2024-01-15T10:10:01;12.75;;;5.90;;
80681;SDS011;70045;40.200;44.582;2024-01-15T10:12:29;13.68;;;7.13;;
80681;SDS011;70045;40.200;44.582;2024-01-15T10:14:58;13.88;;;6.72;;
80681;SDS011;70045;40.200;44.582;2024-01-15T10:17:24;13.40;;;7.00;;
80681;SDS011;70045;40.200;44.582;2024-01-15T10:19:49;14.13;;;6.85;;
80681;SDS011;70045;40.200;44.582;2024-01-15T10:22:15;13.88;;;6.88;;
80681;SDS011;70045;40.200;44.582;2024-01-15T10:24:43;21.45;;;10.70;;
80681;SDS011;70045;40.200;44.582;2024-01-15T10:27:09;23.13;;;10.95;;
80681;SDS011;70045;40.200;44.582;2024-01-15T10:29:35;26.13;;;10.98;;
80681;SDS011;70045;40.200;44.582;2024-01-15T10:32:10;21.70;;;11.63;;
80681;SDS011;70045;40.200;44.582;2024-01-15T10:34:40;26.77;;;10.90;;
80681;SDS011;70045;40.200;44.582;2024-01-15T10:37:08;22.90;;;11.48;;
80681;SDS011;70045;40.200;44.582;2024-01-15T10:39:34;31.00;;;15.07;;
80681;SDS011;70045;40.200;44.582;2024-01-15T10:42:00;36.90;;;16.80;;
80681;SDS011;70045;40.200;44.582;2024-01-15T10:44:25;35.85;;;16.90;;
80681;SDS011;70045;40.200;44.582;2024-01-15T10:46:51;39.65;;;17.23;;
80681;SDS011;70045;40.200;44.582;2024-01-15T10:49:20;41.20;;;18.42;;
80681;SDS011;70045;40.200;44.582;2024-01-15T10:51:46;37.47;;;17.60;;
80681;SDS011;70045;40.200;44.582;2024-01-15T10:54:12;38.33;;;16.83;;
80681;SDS011;70045;40.200;44.582;2024-01-15T10:56:38;38.50;;;15.95;;
80681;SDS011;70045;40.200;44.582;2024-01-15T10:59:04;37.88;;;15.75;;
80681;SDS011;70045;40.200;44.582;2024-01-15T11:01:34;34.95;;;16.00;;
80681;SDS011;70045;40.200;44.582;2024-01-15T11:03:59;39.67;;;17.25;;
80681;SDS011;70045;40.200;44.582;2024-01-15T11:06:25;41.83;;;16.95;;
80681;SDS011;70045;40.200;44.582;2024-01-15T11:08:53;35.90;;;15.75;;
80681;SDS011;70045;40.200;44.582;2024-01-15T11:11:19;40.17;;;17.65;;
80681;SDS011;70045;40.200;44.582;2024-01-15T11:13:49;33.78;;;15.38;;
80681;SDS011;70045;40.200;44.582;2024-01-15T11:16:15;30.10;;;13.55;;
80681;SDS011;70045;40.200;44.582;2024-01-15T11:18:42;25.73;;;12.02;;
80681;SDS011;70045;40.200;44.582;2024-01-15T11:21:26;27.80;;;12.85;;
80681;SDS011;70045;40.200;44.582;2024-01-15T11:26:32;32.70;;;12.88;;
80681;SDS011;70045;40.200;44.582;2024-01-15T11:29:08;31.40;;;13.38;;
80681;SDS011;70045;40.200;44.582;2024-01-15T11:31:57;29.75;;;12.40;;
80681;SDS011;70045;40.200;44.582;2024-01-15T11:37:17;28.25;;;14.52;;
80681;SDS011;70045;40.200;44.582;2024-01-15T11:39:43;34.58;;;16.13;;
80681;SDS011;70045;40.200;44.582;2024-01-15T11:42:10;37.25;;;17.08;;
80681;SDS011;70045;40.200;44.582;2024-01-15T11:44:39;37.13;;;16.55;;
80681;SDS011;70045;40.200;44.582;2024-01-15T11:47:06;41.03;;;16.23;;
80681;SDS011;70045;40.200;44.582;2024-01-15T11:49:46;36.95;;;16.13;;
80681;SDS011;70045;40.200;44.582;2024-01-15T11:52:49;31.90;;;14.85;;
80681;SDS011;70045;40.200;44.582;2024-01-15T11:55:27;25.70;;;13.10;;
80681;SDS011;70045;40.200;44.582;2024-01-15T11:57:58;32.55;;;15.55;;
80681;SDS011;70045;40.200;44.582;2024-01-15T12:00:26;40.90;;;16.27;;
80681;SDS011;70045;40.200;44.582;2024-01-15T12:02:52;37.58;;;15.98;;
80681;SDS011;70045;40.200;44.582;2024-01-15T12:05:18;41.78;;;16.08;;
80681;SDS011;70045;40.200;44.582;2024-01-15T12:07:49;31.88;;;15.02;;
80681;SDS011;70045;40.200;44.582;2024-01-15T12:10:19;33.65;;;15.38;;
80681;SDS011;70045;40.200;44.582;2024-01-15T12:12:53;35.42;;;15.73;;
80681;SDS011;70045;40.200;44.582;2024-01-15T12:15:29;31.23;;;14.60;;
80681;SDS011;70045;40.200;44.582;2024-01-15T12:17:59;32.97;;;15.60;;
80681;SDS011;70045;40.200;44.582;2024-01-15T12:20:26;31.77;;;14.75;;
80681;SDS011;70045;40.200;44.582;2024-01-15T12:22:52;32.67;;;14.13;;
80681;SDS011;70045;40.200;44.582;2024-01-15T12:25:18;32.40;;;13.10;;
80681;SDS011;70045;40.200;44.582;2024-01-15T12:27:44;31.95;;;14.23;;
80681;SDS011;70045;40.200;44.582;2024-01-15T12:30:14;27.10;;;13.02;;
80681;SDS011;70045;40.200;44.582;2024-01-15T12:32:43;28.67;;;13.23;;
80681;SDS011;70045;40.200;44.582;2024-01-15T12:35:09;31.35;;;14.35;;
80681;SDS011;70045;40.200;44.582;2024-01-15T12:37:36;27.40;;;13.02;;
80681;SDS011;70045;40.200;44.582;2024-01-15T12:40:03;33.28;;;14.32;;
80681;SDS011;70045;40.200;44.582;2024-01-15T12:42:33;29.25;;;13.77;;
80681;SDS011;70045;40.200;44.582;2024-01-15T12:44:59;28.23;;;12.85;;
80681;SDS011;70045;40.200;44.582;2024-01-15T12:47:25;34.30;;;13.80;;
80681;SDS011;70045;40.200;44.582;2024-01-15T12:49:52;26.70;;;12.10;;
80681;SDS011;70045;40.200;44.582;2024-01-15T12:52:18;29.00;;;12.80;;
80681;SDS011;70045;40.200;44.582;2024-01-15T12:54:48;31.02;;;13.18;;
80681;SDS011;70045;40.200;44.582;2024-01-15T12:57:14;32.10;;;15.60;;
80681;SDS011;70045;40.200;44.582;2024-01-15T12:59:39;30.27;;;14.55;;
80681;SDS011;70045;40.200;44.582;2024-01-15T13:02:05;33.92;;;13.35;;
80681;SDS011;70045;40.200;44.582;2024-01-15T13:04:30;30.10;;;14.40;;
80681;SDS011;70045;40.200;44.582;2024-01-15T13:06:59;35.55;;;14.07;;
80681;SDS011;70045;40.200;44.582;2024-01-15T13:09:24;31.65;;;14.13;;
80681;SDS011;70045;40.200;44.582;2024-01-15T13:11:49;37.65;;;14.07;;
80681;SDS011;70045;40.200;44.582;2024-01-15T13:14:15;32.35;;;13.98;;
80681;SDS011;70045;40.200;44.582;2024-01-15T13:16:40;34.63;;;14.65;;
80681;SDS011;70045;40.200;44.582;2024-01-15T13:19:10;33.58;;;14.05;;
80681;SDS011;70045;40.200;44.582;2024-01-15T13:21:36;31.80;;;13.38;;
80681;SDS011;70045;40.200;44.582;2024-01-15T13:24:02;39.85;;;14.30;;
80681;SDS011;70045;40.200;44.582;2024-01-15T13:26:28;34.00;;;16.05;;
80681;SDS011;70045;40.200;44.582;2024-01-15T13:28:53;44.22;;;15.18;;
80681;SDS011;70045;40.200;44.582;2024-01-15T13:31:21;47.67;;;16.08;;
80681;SDS011;70045;40.200;44.582;2024-01-15T13:33:47;37.63;;;16.48;;
80681;SDS011;70045;40.200;44.582;2024-01-15T13:36:12;38.53;;;16.10;;
80681;SDS011;70045;40.200;44.582;2024-01-15T13:38:38;37.67;;;16.55;;
80681;SDS011;70045;40.200;44.582;2024-01-15T13:41:06;41.97;;;17.92;;
80681;SDS011;70045;40.200;44.582;2024-01-15T13:43:36;36.90;;;16.63;;
80681;SDS011;70045;40.200;44.582;2024-01-15T13:46:01;40.67;;;17.95;;
80681;SDS011;70045;40.200;44.582;2024-01-15T13:48:27;41.17;;;17.20;;
80681;SDS011;70045;40.200;44.582;2024-01-15T13:50:53;37.90;;;15.27;;
80681;SDS011;70045;40.200;44.582;2024-01-15T13:53:18;37.60;;;15.70;;
80681;SDS011;70045;40.200;44.582;2024-01-15T13:55:47;38.05;;;15.65;;
80681;SDS011;70045;40.200;44.582;2024-01-15T13:58:12;40.50;;;16.27;;
80681;SDS011;70045;40.200;44.582;2024-01-15T14:00:38;41.70;;;16.75;;
80681;SDS011;70045;40.200;44.582;2024-01-15T14:03:03;36.97;;;16.85;;
80681;SDS011;70045;40.200;44.582;2024-01-15T14:05:29;44.10;;;16.27;;
80681;SDS011;70045;40.200;44.582;2024-01-15T14:07:57;53.78;;;17.63;;
80681;SDS011;70045;40.200;44.582;2024-01-15T14:10:23;41.08;;;17.88;;
80681;SDS011;70045;40.200;44.582;2024-01-15T14:12:48;38.85;;;16.63;;
80681;SDS011;70045;40.200;44.582;2024-01-15T14:15:14;42.17;;;16.95;;
80681;SDS011;70045;40.200;44.582;2024-01-15T14:17:39;42.13;;;17.23;;
80681;SDS011;70045;40.200;44.582;2024-01-15T14:20:08;41.63;;;17.85;;
80681;SDS011;70045;40.200;44.582;2024-01-15T14:22:34;42.80;;;17.60;;
80681;SDS011;70045;40.200;44.582;2024-01-15T14:24:59;40.60;;;18.17;;
80681;SDS011;70045;40.200;44.582;2024-01-15T14:27:25;42.25;;;17.52;;
80681;SDS011;70045;40.200;44.582;2024-01-15T14:29:51;53.35;;;21.75;;
80681;SDS011;70045;40.200;44.582;2024-01-15T14:32:20;43.08;;;19.00;;
80681;SDS011;70045;40.200;44.582;2024-01-15T14:34:46;45.58;;;18.95;;
80681;SDS011;70045;40.200;44.582;2024-01-15T14:37:11;46.60;;;18.50;;
80681;SDS011;70045;40.200;44.582;2024-01-15T14:39:36;47.13;;;19.40;;
80681;SDS011;70045;40.200;44.582;2024-01-15T14:42:02;43.13;;;18.70;;
80681;SDS011;70045;40.200;44.582;2024-01-15T14:44:30;43.03;;;17.52;;
80681;SDS011;70045;40.200;44.582;2024-01-15T14:46:56;42.00;;;18.85;;
80681;SDS011;70045;40.200;44.582;2024-01-15T14:49:21;205.35;;;81.00;;
80681;SDS011;70045;40.200;44.582;2024-01-15T14:51:47;241.45;;;90.82;;
80681;SDS011;70045;40.200;44.582;2024-01-15T14:54:12;146.05;;;50.13;;
80681;SDS011;70045;40.200;44.582;2024-01-15T14:56:40;86.95;;;33.95;;
80681;SDS011;70045;40.200;44.582;2024-01-15T14:59:06;67.05;;;27.42;;
80681;SDS011;70045;40.200;44.582;2024-01-15T15:01:31;79.18;;;29.77;;
80681;SDS011;70045;40.200;44.582;2024-01-15T15:03:57;48.80;;;21.10;;
80681;SDS011;70045;40.200;44.582;2024-01-15T15:06:22;48.83;;;19.10;;
80681;SDS011;70045;40.200;44.582;2024-01-15T15:08:51;47.40;;;19.08;;
80681;SDS011;70045;40.200;44.582;2024-01-15T15:11:16;66.78;;;20.58;;
80681;SDS011;70045;40.200;44.582;2024-01-15T15:13:42;87.50;;;25.77;;
80681;SDS011;70045;40.200;44.582;2024-01-15T15:16:07;74.68;;;25.13;;
80681;SDS011;70045;40.200;44.582;2024-01-15T15:18:33;60.78;;;22.42;;
80681;SDS011;70045;40.200;44.582;2024-01-15T15:21:03;53.33;;;19.42;;
80681;SDS011;70045;40.200;44.582;2024-01-15T15:23:29;50.45;;;19.42;;
80681;SDS011;70045;40.200;44.582;2024-01-15T15:25:54;44.33;;;18.10;;
80681;SDS011;70045;40.200;44.582;2024-01-15T15:28:20;43.92;;;16.58;;
80681;SDS011;70045;40.200;44.582;2024-01-15T15:30:45;38.45;;;15.82;;
80681;SDS011;70045;40.200;44.582;2024-01-15T15:33:14;46.65;;;17.75;;
80681;SDS011;70045;40.200;44.582;2024-01-15T15:35:39;44.45;;;17.30;;
80681;SDS011;70045;40.200;44.582;2024-01-15T15:38:04;39.58;;;17.25;;
80681;SDS011;70045;40.200;44.582;2024-01-15T15:40:30;42.63;;;18.45;;
80681;SDS011;70045;40.200;44.582;2024-01-15T15:42:55;37.63;;;17.98;;
80681;SDS011;70045;40.200;44.582;2024-01-15T15:45:23;47.88;;;17.48;;
80681;SDS011;70045;40.200;44.582;2024-01-15T15:47:49;36.00;;;14.52;;
80681;SDS011;70045;40.200;44.582;2024-01-15T15:50:14;31.90;;;13.75;;
80681;SDS011;70045;40.200;44.582;2024-01-15T15:52:40;26.45;;;12.02;;
80681;SDS011;70045;40.200;44.582;2024-01-15T15:55:05;23.52;;;7.93;;
80681;SDS011;70045;40.200;44.582;2024-01-15T15:57:34;18.02;;;7.60;;
80681;SDS011;70045;40.200;44.582;2024-01-15T15:59:59;22.73;;;7.72;;
80681;SDS011;70045;40.200;44.582;2024-01-15T16:02:25;17.73;;;7.75;;
80681;SDS011;70045;40.200;44.582;2024-01-15T16:04:50;24.27;;;8.68;;
80681;SDS011;70045;40.200;44.582;2024-01-15T16:07:15;20.92;;;8.32;;
80681;SDS011;70045;40.200;44.582;2024-01-15T16:09:44;24.13;;;7.45;;
80681;SDS011;70045;40.200;44.582;2024-01-15T16:12:10;14.88;;;6.88;;
80681;SDS011;70045;40.200;44.582;2024-01-15T16:14:35;22.33;;;7.90;;
80681;SDS011;70045;40.200;44.582;2024-01-15T16:17:01;16.45;;;6.65;;
80681;SDS011;70045;40.200;44.582;2024-01-15T16:19:26;15.30;;;7.07;;
80681;SDS011;70045;40.200;44.582;2024-01-15T16:21:55;16.92;;;6.93;;
80681;SDS011;70045;40.200;44.582;2024-01-15T16:24:21;20.42;;;7.15;;
80681;SDS011;70045;40.200;44.582;2024-01-15T16:26:46;21.08;;;8.23;;
80681;SDS011;70045;40.200;44.582;2024-01-15T16:29:12;21.77;;;8.65;;
80681;SDS011;70045;40.200;44.582;2024-01-15T16:31:37;18.25;;;7.75;;
80681;SDS011;70045;40.200;44.582;2024-01-15T16:34:06;15.30;;;6.30;;
80681;SDS011;70045;40.200;44.582;2024-01-15T16:36:31;17.27;;;6.35;;
80681;SDS011;70045;40.200;44.582;2024-01-15T16:38:57;15.25;;;6.25;;
80681;SDS011;70045;40.200;44.582;2024-01-15T16:41:23;14.73;;;5.90;;
80681;SDS011;70045;40.200;44.582;2024-01-15T16:43:48;24.45;;;7.00;;
80681;SDS011;70045;40.200;44.582;2024-01-15T16:46:16;14.88;;;6.22;;
80681;SDS011;70045;40.200;44.582;2024-01-15T16:48:42;12.82;;;6.03;;
80681;SDS011;70045;40.200;44.582;2024-01-15T16:51:07;14.27;;;5.70;;
80681;SDS011;70045;40.200;44.582;2024-01-15T16:53:33;15.52;;;6.93;;
80681;SDS011;70045;40.200;44.582;2024-01-15T16:55:58;13.68;;;5.85;;
80681;SDS011;70045;40.200;44.582;2024-01-15T16:58:27;13.05;;;5.75;;
80681;SDS011;70045;40.200;44.582;2024-01-15T17:00:53;14.35;;;7.10;;
80681;SDS011;70045;40.200;44.582;2024-01-15T17:03:18;19.45;;;8.57;;
80681;SDS011;70045;40.200;44.582;2024-01-15T17:05:43;17.60;;;7.80;;
80681;SDS011;70045;40.200;44.582;2024-01-15T17:08:09;16.48;;;6.25;;
80681;SDS011;70045;40.200;44.582;2024-01-15T17:10:37;11.15;;;4.45;;
80681;SDS011;70045;40.200;44.582;2024-01-15T17:13:03;11.00;;;4.70;;
80681;SDS011;70045;40.200;44.582;2024-01-15T17:15:28;11.85;;;5.18;;
80681;SDS011;70045;40.200;44.582;2024-01-15T17:17:54;14.77;;;6.70;;
80681;SDS011;70045;40.200;44.582;2024-01-15T17:20:19;17.58;;;6.88;;
80681;SDS011;70045;40.200;44.582;2024-01-15T17:22:48;18.75;;;7.50;;
80681;SDS011;70045;40.200;44.582;2024-01-15T17:25:14;14.48;;;6.45;;
80681;SDS011;70045;40.200;44.582;2024-01-15T17:27:39;14.25;;;5.68;;
80681;SDS011;70045;40.200;44.582;2024-01-15T17:30:05;13.40;;;5.57;;
80681;SDS011;70045;40.200;44.582;2024-01-15T17:32:31;23.70;;;7.82;;
80681;SDS011;70045;40.200;44.582;2024-01-15T17:35:00;20.17;;;7.68;;
80681;SDS011;70045;40.200;44.582;2024-01-15T17:37:25;21.65;;;8.38;;
80681;SDS011;70045;40.200;44.582;2024-01-15T17:39:54;16.88;;;6.90;;
80681;SDS011;70045;40.200;44.582;2024-01-15T17:42:19;15.65;;;6.93;;
80681;SDS011;70045;40.200;44.582;2024-01-15T17:44:45;16.63;;;7.50;;
80681;SDS011;70045;40.200;44.582;2024-01-15T17:47:13;14.52;;;6.85;;
80681;SDS011;70045;40.200;44.582;2024-01-15T17:49:38;16.38;;;5.80;;
80681;SDS011;70045;40.200;44.582;2024-01-15T17:52:04;11.48;;;5.85;;
80681;SDS011;70045;40.200;44.582;2024-01-15T17:54:30;14.25;;;7.05;;
80681;SDS011;70045;40.200;44.582;2024-01-15T17:56:56;17.92;;;7.18;;
80681;SDS011;70045;40.200;44.582;2024-01-15T17:59:25;17.10;;;6.90;;
80681;SDS011;70045;40.200;44.582;2024-01-15T18:01:51;16.38;;;6.63;;
80681;SDS011;70045;40.200;44.582;2024-01-15T18:04:16;15.00;;;7.38;;
80681;SDS011;70045;40.200;44.582;2024-01-15T18:06:42;17.90;;;6.85;;
80681;SDS011;70045;40.200;44.582;2024-01-15T18:09:07;20.88;;;7.95;;
80681;SDS011;70045;40.200;44.582;2024-01-15T18:11:36;19.45;;;7.43;;
80681;SDS011;70045;40.200;44.582;2024-01-15T18:14:02;16.15;;;7.30;;
80681;SDS011;70045;40.200;44.582;2024-01-15T18:16:27;17.20;;;6.75;;
80681;SDS011;70045;40.200;44.582;2024-01-15T18:18:52;13.65;;;5.75;;
80681;SDS011;70045;40.200;44.582;2024-01-15T18:21:19;14.55;;;6.03;;
80681;SDS011;70045;40.200;44.582;2024-01-15T18:23:49;16.60;;;7.05;;
80681;SDS011;70045;40.200;44.582;2024-01-15T18:26:15;19.05;;;7.60;;
80681;SDS011;70045;40.200;44.582;2024-01-15T18:28:41;19.52;;;7.80;;
80681;SDS011;70045;40.200;44.582;2024-01-15T18:31:06;20.63;;;6.75;;
80681;SDS011;70045;40.200;44.582;2024-01-15T18:33:32;18.10;;;7.00;;
80681;SDS011;70045;40.200;44.582;2024-01-15T18:36:01;16.67;;;6.65;;
80681;SDS011;70045;40.200;44.582;2024-01-15T18:38:30;22.38;;;8.75;;
80681;SDS011;70045;40.200;44.582;2024-01-15T18:40:55;22.02;;;7.95;;
80681;SDS011;70045;40.200;44.582;2024-01-15T18:43:21;22.63;;;8.10;;
80681;SDS011;70045;40.200;44.582;2024-01-15T18:45:47;26.25;;;8.00;;
80681;SDS011;70045;40.200;44.582;2024-01-15T18:48:16;18.75;;;8.35;;
80681;SDS011;70045;40.200;44.582;2024-01-15T18:50:42;16.75;;;7.35;;
80681;SDS011;70045;40.200;44.582;2024-01-15T18:53:08;16.58;;;7.50;;
80681;SDS011;70045;40.200;44.582;2024-01-15T18:55:34;15.45;;;6.95;;
80681;SDS011;70045;40.200;44.582;2024-01-15T18:57:59;14.88;;;7.22;;
80681;SDS011;70045;40.200;44.582;2024-01-15T19:00:27;22.80;;;5.72;;
80681;SDS011;70045;40.200;44.582;2024-01-15T19:02:53;14.68;;;6.03;;
80681;SDS011;70045;40.200;44.582;2024-01-15T19:05:18;20.95;;;6.57;;
80681;SDS011;70045;40.200;44.582;2024-01-15T19:07:44;14.75;;;6.43;;
80681;SDS011;70045;40.200;44.582;2024-01-15T19:10:09;13.18;;;6.57;;
80681;SDS011;70045;40.200;44.582;2024-01-15T19:12:38;15.45;;;5.35;;
80681;SDS011;70045;40.200;44.582;2024-01-15T19:15:04;15.07;;;6.55;;
80681;SDS011;70045;40.200;44.582;2024-01-15T19:17:30;13.95;;;6.60;;
80681;SDS011;70045;40.200;44.582;2024-01-15T19:19:55;16.02;;;7.00;;
80681;SDS011;70045;40.200;44.582;2024-01-15T19:22:20;18.17;;;6.45;;
80681;SDS011;70045;40.200;44.582;2024-01-15T19:24:49;15.65;;;5.90;;
80681;SDS011;70045;40.200;44.582;2024-01-15T19:27:15;15.07;;;6.43;;
80681;SDS011;70045;40.200;44.582;2024-01-15T19:29:40;14.45;;;5.93;;
80681;SDS011;70045;40.200;44.582;2024-01-15T19:32:06;12.43;;;5.75;;
80681;SDS011;70045;40.200;44.582;2024-01-15T19:34:31;13.80;;;5.72;;
80681;SDS011;70045;40.200;44.582;2024-01-15T19:36:59;16.27;;;6.13;;
80681;SDS011;70045;40.200;44.582;2024-01-15T19:39:25;11.70;;;5.38;;
80681;SDS011;70045;40.200;44.582;2024-01-15T19:41:50;17.38;;;7.03;;
80681;SDS011;70045;40.200;44.582;2024-01-15T19:44:15;12.40;;;6.13;;
80681;SDS011;70045;40.200;44.582;2024-01-15T19:46:41;22.90;;;6.80;;
80681;SDS011;70045;40.200;44.582;2024-01-15T19:49:09;14.57;;;6.18;;
80681;SDS011;70045;40.200;44.582;2024-01-15T19:51:35;13.48;;;6.40;;
80681;SDS011;70045;40.200;44.582;2024-01-15T19:54:00;12.45;;;5.65;;
80681;SDS011;70045;40.200;44.582;2024-01-15T19:56:26;14.23;;;6.53;;
80681;SDS011;70045;40.200;44.582;2024-01-15T19:58:51;15.43;;;6.20;;
80681;SDS011;70045;40.200;44.582;2024-01-15T20:01:20;13.82;;;5.93;;
80681;SDS011;70045;40.200;44.582;2024-01-15T20:03:46;14.82;;;6.50;;
80681;SDS011;70045;40.200;44.582;2024-01-15T20:06:11;16.67;;;6.10;;
80681;SDS011;70045;40.200;44.582;2024-01-15T20:08:37;17.17;;;6.47;;
80681;SDS011;70045;40.200;44.582;2024-01-15T20:11:02;15.15;;;6.65;;
80681;SDS011;70045;40.200;44.582;2024-01-15T20:13:30;15.05;;;6.32;;
80681;SDS011;70045;40.200;44.582;2024-01-15T20:15:56;14.80;;;6.22;;
80681;SDS011;70045;40.200;44.582;2024-01-15T20:18:21;17.45;;;6.03;;
80681;SDS011;70045;40.200;44.582;2024-01-15T20:20:47;18.00;;;6.43;;
80681;SDS011;70045;40.200;44.582;2024-01-15T20:23:12;20.08;;;7.88;;
80681;SDS011;70045;40.200;44.582;2024-01-15T20:25:40;27.88;;;10.23;;
80681;SDS011;70045;40.200;44.582;2024-01-15T20:28:06;26.60;;;8.88;;
80681;SDS011;70045;40.200;44.582;2024-01-15T20:30:31;20.83;;;7.25;;
80681;SDS011;70045;40.200;44.582;2024-01-15T20:32:57;18.58;;;6.93;;
80681;SDS011;70045;40.200;44.582;2024-01-15T20:35:22;18.35;;;6.55;;
80681;SDS011;70045;40.200;44.582;2024-01-15T20:37:51;11.80;;;5.63;;
80681;SDS011;70045;40.200;44.582;2024-01-15T20:40:17;15.65;;;6.18;;
80681;SDS011;70045;40.200;44.582;2024-01-15T20:42:42;13.05;;;6.18;;
80681;SDS011;70045;40.200;44.582;2024-01-15T20:45:08;15.15;;;5.88;;
80681;SDS011;70045;40.200;44.582;2024-01-15T20:47:33;12.98;;;5.47;;
80681;SDS011;70045;40.200;44.582;2024-01-15T20:50:01;13.48;;;5.78;;
80681;SDS011;70045;40.200;44.582;2024-01-15T20:52:27;13.43;;;5.85;;
80681;SDS011;70045;40.200;44.582;2024-01-15T20:54:52;14.93;;;6.82;;
80681;SDS011;70045;40.200;44.582;2024-01-15T20:57:18;13.85;;;5.55;;
80681;SDS011;70045;40.200;44.582;2024-01-15T20:59:43;16.00;;;6.38;;
80681;SDS011;70045;40.200;44.582;2024-01-15T21:02:12;15.20;;;6.25;;
80681;SDS011;70045;40.200;44.582;2024-01-15T21:04:37;15.13;;;6.05;;
80681;SDS011;70045;40.200;44.582;2024-01-15T21:07:05;18.42;;;7.10;;
80681;SDS011;70045;40.200;44.582;2024-01-15T21:09:31;16.50;;;7.03;;
80681;SDS011;70045;40.200;44.582;2024-01-15T21:11:56;14.60;;;7.35;;
80681;SDS011;70045;40.200;44.582;2024-01-15T21:14:25;17.10;;;6.93;;
80681;SDS011;70045;40.200;44.582;2024-01-15T21:16:50;15.07;;;6.45;;
80681;SDS011;70045;40.200;44.582;2024-01-15T21:19:16;15.07;;;6.88;;
80681;SDS011;70045;40.200;44.582;2024-01-15T21:21:42;16.65;;;6.72;;
80681;SDS011;70045;40.200;44.582;2024-01-15T21:24:08;16.38;;;7.22;;
80681;SDS011;70045;40.200;44.582;2024-01-15T21:26:36;15.18;;;8.25;;
80681;SDS011;70045;40.200;44.582;2024-01-15T21:29:02;19.65;;;7.88;;
80681;SDS011;70045;40.200;44.582;2024-01-15T21:31:27;18.55;;;8.45;;
80681;SDS011;70045;40.200;44.582;2024-01-15T21:33:52;16.50;;;6.70;;
80681;SDS011;70045;40.200;44.582;2024-01-15T21:36:18;20.75;;;8.27;;
80681;SDS011;70045;40.200;44.582;2024-01-15T21:38:48;14.32;;;6.63;;
80681;SDS011;70045;40.200;44.582;2024-01-15T21:41:13;13.43;;;6.85;;
80681;SDS011;70045;40.200;44.582;2024-01-15T21:43:39;19.70;;;7.20;;
80681;SDS011;70045;40.200;44.582;2024-01-15T21:46:04;15.93;;;7.00;;
80681;SDS011;70045;40.200;44.582;2024-01-15T21:48:30;15.55;;;7.20;;
80681;SDS011;70045;40.200;44.582;2024-01-15T21:50:59;19.98;;;7.55;;
80681;SDS011;70045;40.200;44.582;2024-01-15T21:53:24;17.40;;;7.85;;
80681;SDS011;70045;40.200;44.582;2024-01-15T21:55:50;18.40;;;7.25;;
80681;SDS011;70045;40.200;44.582;2024-01-15T21:58:15;18.98;;;8.10;;
80681;SDS011;70045;40.200;44.582;2024-01-15T22:00:40;19.77;;;8.15;;
80681;SDS011;70045;40.200;44.582;2024-01-15T22:03:09;19.35;;;8.15;;
80681;SDS011;70045;40.200;44.582;2024-01-15T22:05:34;20.17;;;7.50;;
80681;SDS011;70045;40.200;44.582;2024-01-15T22:08:00;17.50;;;8.45;;
80681;SDS011;70045;40.200;44.582;2024-01-15T22:10:26;22.80;;;9.00;;
80681;SDS011;70045;40.200;44.582;2024-01-15T22:12:51;16.92;;;7.85;;
80681;SDS011;70045;40.200;44.582;2024-01-15T22:15:20;16.90;;;8.05;;
80681;SDS011;70045;40.200;44.582;2024-01-15T22:17:45;18.35;;;8.18;;
80681;SDS011;70045;40.200;44.582;2024-01-15T22:20:11;16.65;;;7.53;;
80681;SDS011;70045;40.200;44.582;2024-01-15T22:22:36;13.88;;;6.70;;
80681;SDS011;70045;40.200;44.582;2024-01-15T22:25:01;16.77;;;6.45;;
80681;SDS011;70045;40.200;44.582;2024-01-15T22:27:30;12.43;;;5.75;;
80681;SDS011;70045;40.200;44.582;2024-01-15T22:29:56;11.15;;;4.57;;
80681;SDS011;70045;40.200;44.582;2024-01-15T22:32:21;12.65;;;4.90;;
80681;SDS011;70045;40.200;44.582;2024-01-15T22:34:47;9.75;;;4.15;;
80681;SDS011;70045;40.200;44.582;2024-01-15T22:37:12;10.10;;;3.92;;
80681;SDS011;70045;40.200;44.582;2024-01-15T22:39:40;10.88;;;4.38;;
80681;SDS011;70045;40.200;44.582;2024-01-15T22:42:06;9.48;;;3.70;;
80681;SDS011;70045;40.200;44.582;2024-01-15T22:44:31;6.90;;;3.78;;
80681;SDS011;70045;40.200;44.582;2024-01-15T22:46:57;7.35;;;2.63;;
80681;SDS011;70045;40.200;44.582;2024-01-15T22:49:22;5.85;;;3.00;;
80681;SDS011;70045;40.200;44.582;2024-01-15T22:51:51;8.57;;;3.42;;
80681;SDS011;70045;40.200;44.582;2024-01-15T22:54:16;7.72;;;3.45;;
80681;SDS011;70045;40.200;44.582;2024-01-15T22:56:41;6.30;;;3.17;;
80681;SDS011;70045;40.200;44.582;2024-01-15T22:59:07;5.82;;;3.08;;
80681;SDS011;70045;40.200;44.582;2024-01-15T23:01:32;5.65;;;2.88;;
80681;SDS011;70045;40.200;44.582;2024-01-15T23:04:01;7.10;;;3.28;;
80681;SDS011;70045;40.200;44.582;2024-01-15T23:06:27;5.05;;;2.58;;
80681;SDS011;70045;40.200;44.582;2024-01-15T23:08:52;7.13;;;2.80;;
80681;SDS011;70045;40.200;44.582;2024-01-15T23:11:18;5.95;;;2.90;;
80681;SDS011;70045;40.200;44.582;2024-01-15T23:13:43;6.97;;;2.50;;
80681;SDS011;70045;40.200;44.582;2024-01-15T23:16:12;5.80;;;2.97;;
80681;SDS011;70045;40.200;44.582;2024-01-15T23:18:37;6.10;;;3.03;;
80681;SDS011;70045;40.200;44.582;2024-01-15T23:21:02;8.10;;;3.47;;
80681;SDS011;70045;40.200;44.582;2024-01-15T23:23:28;7.05;;;3.35;;
80681;SDS011;70045;40.200;44.582;2024-01-15T23:25:53;7.30;;;3.03;;
80681;SDS011;70045;40.200;44.582;2024-01-15T23:28:22;6.68;;;3.50;;
80681;SDS011;70045;40.200;44.582;2024-01-15T23:30:47;6.07;;;3.67;;